In Rescue
 
Open Full Screen Window  High Contrast Mode
Wind Gusting 00 knots
11
February 24, 2020 3:10 PM PST
Weather Information
Wind Direction
  320 °
Wind Speed
  11 kt (13 mph)
Wind Gust
  00 kt (0 mph)
Altimeter
30.27 in
Visibility
10 SM
Temperature
21° C
70° F
Dewpoint
08° C
46° F
Humidity
43%
1hr Rain Fall
00.00 in.
24hr Rain Fall
00.00 in.
Sky Condition
Clear
VFR

METAR KCVH 242310Z AUTO 32011KT 10SM CLR 21/08 A3027 RMK A01

FAA Disclaimer: The data displayed is for advisory purposes only and is not to be used for flight planning or operations.